Home   Weather   China   Tianjin   Past weeks
Flag for China

Past Weather in Tianjin, Tianjin Municipality, China — Yesterday and Last 2 Weeks

Currently: 86 °F. Passing clouds. (Weather station: Tianjin / Zhangguizhu, China). See more current weather

Past Weather in Tianjin — Graph

°F

Tianjin Temperature Yesterday

Maximum temperature yesterday: 86 °F (at 2:00 pm)
Minimum temperature yesterday: 66 °F (at 2:00 am)
Average temperature yesterday: 77 °F

High & Low Weather Summary for the Past Weeks

 TemperatureHumidityPressure
High99 °F (Aug 4, 4:00 pm)100% (Jul 30, 6:00 am)29.86 "Hg (Jul 30, 6:00 am)
Low66 °F (Aug 9, 9:00 am)46% (Aug 10, 3:00 pm)29.50 "Hg (Aug 7, 3:30 am)
Average82 °F77%29.68 "Hg
* Reported Jul 27 11:00 am — Aug 11 11:30 am, Tianjin. Weather by CustomWeather, © 2022

Note: Actual official high and low records may vary slightly from our data, if they occured in-between our weather recording intervals... More about our weather records

Tianjin Weather History for the Previous 24 Hours

Scroll right to see more
 ConditionsComfort  
Time TempWeatherWind HumidityBarometerVisibility
11:30 am
Thu, Aug 11
84 °FPassing clouds.3 mph62%29.65 "HgN/A
11:00 am84 °FPassing clouds.6 mph62%29.65 "HgN/A
10:30 am82 °FPassing clouds.6 mph66%29.65 "HgN/A
10:00 am82 °FPassing clouds.6 mph66%29.65 "HgN/A
9:30 am81 °FPassing clouds.3 mph66%29.65 "HgN/A
9:00 am79 °FSunny.6 mph74%29.65 "Hg10 mi
7:30 am75 °FPassing clouds.6 mph78%29.65 "HgN/A
7:00 am75 °FClear.3 mph78%29.65 "Hg5 mi
6:30 am73 °FClear.3 mph83%29.65 "Hg5 mi
6:00 am73 °FClear.1 mph83%29.65 "Hg5 mi
5:30 am72 °FClear.1 mph88%29.65 "Hg5 mi
5:00 am73 °FPassing clouds.3 mph83%29.65 "HgN/A
4:30 am73 °FPassing clouds.3 mph89%29.65 "HgN/A
4:00 am73 °FClear.3 mph89%29.62 "Hg10 mi
3:30 am73 °FClear.3 mph89%29.62 "Hg10 mi
3:00 am73 °FClear.3 mph83%29.62 "Hg10 mi
2:30 am73 °FPassing clouds.3 mph83%29.62 "HgN/A
2:00 am75 °FClear.3 mph83%29.65 "Hg10 mi
1:30 am75 °FClear.3 mph83%29.65 "Hg10 mi
1:00 am75 °FClear.3 mph83%29.65 "Hg10 mi
12:30 am75 °FPassing clouds.3 mph83%29.65 "HgN/A
12:00 am77 °FPassing clouds.3 mph79%29.65 "HgN/A
11:30 pm
Wed, Aug 10
77 °FPassing clouds.6 mph79%29.68 "HgN/A
11:00 pm77 °FClear.3 mph79%29.68 "Hg10 mi
10:30 pm77 °FClear.3 mph79%29.68 "Hg10 mi
10:00 pm79 °FClear.6 mph74%29.68 "Hg10 mi
9:30 pm79 °FPassing clouds.6 mph74%29.68 "HgN/A
9:00 pm79 °FClear.6 mph74%29.68 "Hg10 mi
8:30 pm79 °FClear.6 mph74%29.68 "Hg10 mi
8:00 pm81 °FClear.6 mph66%29.68 "Hg10 mi
7:00 pm81 °FPassing clouds.6 mph66%29.65 "HgN/A
6:00 pm82 °FPassing clouds.6 mph55%29.65 "HgN/A
5:30 pm84 °FPassing clouds.6 mph55%29.65 "HgN/A
4:30 pm86 °FPassing clouds.3 mph49%29.65 "HgN/A
4:00 pm86 °FPassing clouds.3 mph49%29.65 "HgN/A
3:00 pm86 °FSunny.3 mph46%29.68 "Hg10 mi
2:30 pm86 °FSunny.3 mph49%29.68 "Hg10 mi
2:00 pm86 °FPassing clouds.3 mph49%29.68 "HgN/A
1:30 pm84 °FPassing clouds.6 mph51%29.71 "HgN/A
1:00 pm84 °FPassing clouds.3 mph55%29.71 "HgN/A
12:30 pm84 °FPassing clouds.6 mph51%29.71 "HgN/A
Weather by CustomWeather, © 2022

See weather overview